createdAt,value
2022-09-07T00:03:57.404Z,18.30
2022-09-07T00:08:00.441Z,18.47
2022-09-07T00:12:03.224Z,18.67
2022-09-07T00:16:11.096Z,18.78
2022-09-07T00:20:13.207Z,18.82
2022-09-07T00:24:15.234Z,18.82
2022-09-07T00:28:17.696Z,18.82
2022-09-07T00:32:19.761Z,18.86
2022-09-07T00:36:22.788Z,18.83
2022-09-07T00:40:24.867Z,18.84
2022-09-07T00:44:42.279Z,18.89
2022-09-07T00:48:56.653Z,18.86
2022-09-07T00:53:15.818Z,18.80
2022-09-07T00:57:18.096Z,18.76
2022-09-07T01:01:20.704Z,18.75
2022-09-07T01:05:29.960Z,18.72
2022-09-07T01:09:32.553Z,18.70
2022-09-07T01:13:35.617Z,18.68
2022-09-07T01:17:40.628Z,18.77
2022-09-07T01:22:19.493Z,18.93
2022-09-07T01:26:46.973Z,19.20
2022-09-07T01:31:21.449Z,19.00
2022-09-07T01:35:34.986Z,18.81
2022-09-07T01:39:42.067Z,18.77
2022-09-07T01:43:53.195Z,18.76
2022-09-07T01:48:04.431Z,18.72
2022-09-07T01:52:14.491Z,18.73
2022-09-07T01:56:32.445Z,18.74
2022-09-07T02:00:37.857Z,18.73
2022-09-07T02:04:47.073Z,18.72
2022-09-07T02:09:21.547Z,18.71
2022-09-07T02:13:36.029Z,18.77
2022-09-07T02:17:43.585Z,18.73
2022-09-07T02:21:53.463Z,18.63
2022-09-07T02:26:06.768Z,18.59
2022-09-07T02:30:10.005Z,18.61
2022-09-07T02:34:12.123Z,18.56
2022-09-07T02:38:14.215Z,18.58
2022-09-07T02:42:16.259Z,18.61
2022-09-07T02:46:46.016Z,18.60
2022-09-07T02:50:57.388Z,18.57
2022-09-07T02:55:36.577Z,18.51
2022-09-07T02:59:56.196Z,18.46
2022-09-07T03:04:22.929Z,18.39
2022-09-07T03:08:44.664Z,18.25
2022-09-07T03:12:49.484Z,18.14
2022-09-07T03:16:55.985Z,18.04
2022-09-07T03:20:58.050Z,18.05
2022-09-07T03:25:00.434Z,18.03
2022-09-07T03:29:02.494Z,17.95
2022-09-07T03:33:04.537Z,17.89
2022-09-07T03:37:06.619Z,17.81
2022-09-07T03:41:08.715Z,17.70
2022-09-07T03:45:11.096Z,17.61
2022-09-07T03:49:13.252Z,17.56
2022-09-07T03:53:15.280Z,17.53
2022-09-07T03:57:17.398Z,17.47
2022-09-07T04:01:24.682Z,17.40
2022-09-07T04:05:26.772Z,17.34
2022-09-07T04:09:28.823Z,17.32
2022-09-07T04:13:32.153Z,17.31
2022-09-07T04:17:34.190Z,17.28
2022-09-07T04:21:36.265Z,17.22
2022-09-07T04:25:38.736Z,17.20
2022-09-07T04:29:40.756Z,17.18
2022-09-07T04:33:44.158Z,17.05
2022-09-07T04:37:46.179Z,16.88
2022-09-07T04:41:48.172Z,16.68
2022-09-07T04:45:50.245Z,16.62
2022-09-07T04:49:52.893Z,16.57
2022-09-07T04:53:56.619Z,16.45
2022-09-07T04:57:58.661Z,16.43
2022-09-07T05:02:00.740Z,16.41
2022-09-07T05:06:04.157Z,16.47
2022-09-07T05:10:06.372Z,16.58
2022-09-07T05:14:10.231Z,16.72
2022-09-07T05:18:15.616Z,16.90
2022-09-07T05:22:17.715Z,17.08
2022-09-07T05:26:22.115Z,17.04
2022-09-07T05:34:48.540Z,17.27
2022-09-07T05:38:51.771Z,17.43
2022-09-07T05:42:53.822Z,17.66
2022-09-07T05:46:55.908Z,17.86
2022-09-07T05:50:58.040Z,17.97
2022-09-07T05:55:13.337Z,18.01
2022-09-07T05:59:22.059Z,18.00
2022-09-07T06:03:24.945Z,18.03
2022-09-07T06:07:26.982Z,18.02
2022-09-07T06:11:29.025Z,18.14
2022-09-07T06:15:34.735Z,20.51
2022-09-07T06:19:36.814Z,21.98
2022-09-07T06:23:40.298Z,23.12
2022-09-07T06:27:42.335Z,26.26
2022-09-07T06:36:12.573Z,30.36
2022-09-07T06:40:14.794Z,31.16
2022-09-07T06:44:16.842Z,31.77
2022-09-07T06:48:18.923Z,31.83
2022-09-07T06:52:20.979Z,30.10
2022-09-07T06:56:24.402Z,27.09
2022-09-07T07:00:26.429Z,25.13
2022-09-07T07:04:28.516Z,24.08
2022-09-07T07:08:31.374Z,23.56
2022-09-07T07:16:37.453Z,22.82
2022-09-07T07:20:41.399Z,22.74
2022-09-07T07:24:43.429Z,22.85
2022-09-07T07:29:06.039Z,22.89
2022-09-07T07:33:08.368Z,22.79
2022-09-07T07:37:10.395Z,22.67
2022-09-07T07:54:20.036Z,22.41
2022-09-07T07:58:22.521Z,22.40
2022-09-07T08:02:24.915Z,22.35
2022-09-07T08:06:27.584Z,22.34
2022-09-07T08:10:30.124Z,22.39
2022-09-07T08:14:32.206Z,22.51
2022-09-07T08:18:35.733Z,22.67
2022-09-07T08:22:37.728Z,22.86
2022-09-07T08:26:39.983Z,22.88
2022-09-07T08:30:41.967Z,22.79
2022-09-07T08:34:43.935Z,22.90
2022-09-07T08:38:46.349Z,23.06
2022-09-07T08:42:58.317Z,23.31
2022-09-07T08:47:10.896Z,23.47
2022-09-07T08:51:24.898Z,23.40
2022-09-07T08:55:29.655Z,23.38
2022-09-07T08:59:48.204Z,23.27
2022-09-07T09:08:27.533Z,23.33
2022-09-07T09:12:46.554Z,23.50
2022-09-07T09:16:57.807Z,23.76
2022-09-07T09:21:00.678Z,23.90
2022-09-07T09:25:26.944Z,23.91
2022-09-07T09:29:28.949Z,23.93
2022-09-07T09:33:31.008Z,23.95
2022-09-07T09:37:37.860Z,23.94
2022-09-07T09:41:39.992Z,24.17
2022-09-07T09:54:51.096Z,24.63
2022-09-07T10:07:57.069Z,24.95
2022-09-07T10:12:08.775Z,25.03
2022-09-07T10:16:15.013Z,24.91
2022-09-07T10:20:17.113Z,24.91
2022-09-07T10:24:25.388Z,24.87
2022-09-07T10:29:06.587Z,24.87
2022-09-07T10:33:06.505Z,24.87
2022-09-07T10:37:11.594Z,24.90
2022-09-07T10:41:16.772Z,25.03
2022-09-07T10:45:24.000Z,25.47
2022-09-07T10:54:37.352Z,25.48
2022-09-07T10:59:04.746Z,25.25
2022-09-07T11:03:27.127Z,25.23
2022-09-07T11:07:50.516Z,25.37
2022-09-07T11:12:04.431Z,25.52
2022-09-07T11:16:50.604Z,25.66
2022-09-07T11:20:43.930Z,26.05
2022-09-07T11:25:32.846Z,26.29
2022-09-07T11:29:43.195Z,26.27
2022-09-07T11:34:24.119Z,26.16
2022-09-07T11:38:35.076Z,25.96
2022-09-07T11:42:55.807Z,25.78
2022-09-07T11:47:03.484Z,25.72
2022-09-07T11:51:22.526Z,25.89
2022-09-07T11:55:28.428Z,26.04
2022-09-07T11:59:58.557Z,26.30
2022-09-07T12:04:23.505Z,26.69
2022-09-07T12:08:34.662Z,26.95
2022-09-07T12:13:05.342Z,27.30
2022-09-07T12:17:44.542Z,27.71
2022-09-07T12:21:52.316Z,27.96
2022-09-07T12:26:32.837Z,27.79
2022-09-07T12:30:34.837Z,27.58
2022-09-07T12:34:46.562Z,27.43
2022-09-07T12:39:41.220Z,27.33
2022-09-07T12:43:43.135Z,27.19
2022-09-07T12:47:57.147Z,26.96
2022-09-07T12:52:32.212Z,26.59
2022-09-07T13:01:27.057Z,26.08
2022-09-07T13:05:29.027Z,25.92
2022-09-07T13:09:39.323Z,25.85
2022-09-07T13:18:03.675Z,26.12
2022-09-07T13:22:35.392Z,26.19
2022-09-07T13:27:11.166Z,25.81
2022-09-07T13:31:41.004Z,25.47
2022-09-07T13:35:45.254Z,25.31
2022-09-07T13:39:49.280Z,25.24
2022-09-07T13:43:58.276Z,25.29
2022-09-07T13:48:09.742Z,25.32
2022-09-07T13:52:27.282Z,25.37
2022-09-07T13:56:41.458Z,25.62
2022-09-07T14:01:12.829Z,25.84
2022-09-07T14:05:18.692Z,25.92
2022-09-07T14:09:22.029Z,26.07
2022-09-07T14:13:24.005Z,26.16
2022-09-07T14:17:27.778Z,26.21
2022-09-07T14:21:29.791Z,26.26
2022-09-07T14:26:16.131Z,26.33
2022-09-07T14:29:53.884Z,26.38
2022-09-07T14:33:58.558Z,26.43
2022-09-07T14:42:54.041Z,26.57
2022-09-07T14:46:57.817Z,26.71
2022-09-07T14:51:19.375Z,26.78
2022-09-07T14:55:40.087Z,26.83
2022-09-07T14:59:46.923Z,26.84
2022-09-07T15:03:48.810Z,26.79
2022-09-07T15:07:59.161Z,26.63
2022-09-07T15:12:17.768Z,26.55
2022-09-07T15:16:25.630Z,26.52
2022-09-07T15:20:40.850Z,26.59
2022-09-07T15:24:43.045Z,26.63
2022-09-07T15:33:07.027Z,26.71
2022-09-07T15:41:31.639Z,26.52
2022-09-07T15:45:33.756Z,26.48
2022-09-07T15:49:35.899Z,26.50
2022-09-07T15:58:11.392Z,26.55
2022-09-07T16:06:35.913Z,26.60
2022-09-07T16:10:38.188Z,26.49
2022-09-07T16:14:40.177Z,26.46
2022-09-07T16:18:46.557Z,26.47
2022-09-07T16:27:11.969Z,26.58
2022-09-07T16:31:19.823Z,26.52
2022-09-07T16:35:21.854Z,26.46
2022-09-07T16:39:23.869Z,26.39
2022-09-07T16:43:26.771Z,26.26
2022-09-07T16:47:28.870Z,26.06
2022-09-07T16:51:31.163Z,25.88
2022-09-07T16:55:33.191Z,25.66
2022-09-07T16:59:35.218Z,25.45
2022-09-07T17:03:38.671Z,25.30
2022-09-07T17:07:40.824Z,25.12
2022-09-07T17:11:42.873Z,24.95
2022-09-07T17:15:44.882Z,24.78
2022-09-07T17:19:46.890Z,24.62
2022-09-07T17:23:54.725Z,24.49
2022-09-07T17:27:57.478Z,24.36
2022-09-07T17:36:23.967Z,24.10
2022-09-07T17:40:26.562Z,24.00
2022-09-07T17:44:33.281Z,23.86
2022-09-07T17:48:38.713Z,23.68
2022-09-07T17:52:45.536Z,23.53
2022-09-07T17:56:48.405Z,23.39
2022-09-07T18:00:51.089Z,23.30
2022-09-07T18:04:53.177Z,23.15
2022-09-07T18:08:55.358Z,23.02
2022-09-07T18:12:57.330Z,22.78
2022-09-07T18:16:59.387Z,22.53
2022-09-07T18:21:01.374Z,22.32
2022-09-07T18:25:03.854Z,22.07
2022-09-07T18:29:15.863Z,21.94
2022-09-07T18:33:28.087Z,21.88
2022-09-07T18:37:31.979Z,21.91
2022-09-07T18:41:39.235Z,21.93
2022-09-07T18:45:42.683Z,21.80
2022-09-07T18:49:44.729Z,21.69
2022-09-07T18:53:47.108Z,21.62
2022-09-07T18:57:49.312Z,21.38
2022-09-07T19:01:53.722Z,21.26
2022-09-07T19:06:04.901Z,21.25
2022-09-07T19:10:08.055Z,21.23
2022-09-07T19:14:10.130Z,21.24
2022-09-07T19:18:12.111Z,21.26
2022-09-07T19:22:14.118Z,21.11
2022-09-07T19:26:16.083Z,21.05
2022-09-07T19:30:18.224Z,20.89
2022-09-07T19:34:20.266Z,20.73
2022-09-07T19:38:22.272Z,20.51
2022-09-07T19:42:25.200Z,20.29
2022-09-07T19:46:27.265Z,20.16
2022-09-07T19:50:30.838Z,20.05
2022-09-07T19:54:34.026Z,19.75
2022-09-07T19:58:38.196Z,19.48
2022-09-07T20:02:40.269Z,19.40
2022-09-07T20:06:42.433Z,19.22
2022-09-07T20:10:44.440Z,19.25
2022-09-07T20:14:46.435Z,19.26
2022-09-07T20:18:48.676Z,19.30
2022-09-07T20:22:51.243Z,19.34
2022-09-07T20:26:53.275Z,19.33
2022-09-07T20:30:55.653Z,19.27
2022-09-07T20:34:57.619Z,19.16
2022-09-07T20:38:59.605Z,19.04
2022-09-07T20:43:01.585Z,19.07
2022-09-07T20:47:03.786Z,18.95
2022-09-07T20:51:10.345Z,18.69
2022-09-07T20:55:12.430Z,18.58
2022-09-07T20:59:15.256Z,18.56
2022-09-07T21:03:17.703Z,18.51
2022-09-07T21:07:19.686Z,18.39
2022-09-07T21:11:25.198Z,18.39
2022-09-07T21:15:29.182Z,18.32
2022-09-07T21:19:31.165Z,18.10
2022-09-07T21:23:35.181Z,17.91
2022-09-07T21:27:38.708Z,17.89
2022-09-07T21:31:40.914Z,17.97
2022-09-07T21:35:43.044Z,18.08
2022-09-07T21:39:45.020Z,18.19
2022-09-07T21:43:47.585Z,18.30
2022-09-07T21:47:49.545Z,18.34
2022-09-07T21:51:51.506Z,18.38
2022-09-07T21:55:56.949Z,18.38
2022-09-07T21:59:58.993Z,18.30
2022-09-07T22:04:06.782Z,18.21
2022-09-07T22:08:08.816Z,18.21
2022-09-07T22:12:10.795Z,18.15
2022-09-07T22:16:13.901Z,18.07
2022-09-07T22:20:15.983Z,17.94
2022-09-07T22:24:18.000Z,17.79
2022-09-07T22:28:20.036Z,17.62
2022-09-07T22:32:22.073Z,17.39
2022-09-07T22:36:27.884Z,17.20
2022-09-07T22:40:29.867Z,17.20
2022-09-07T22:44:32.104Z,17.25
2022-09-07T22:48:34.890Z,17.07
2022-09-07T22:52:37.109Z,16.97
2022-09-07T22:56:39.329Z,16.92
2022-09-07T23:00:41.316Z,16.85
2022-09-07T23:04:43.573Z,16.88
2022-09-07T23:08:45.675Z,16.99
2022-09-07T23:12:47.680Z,17.07
2022-09-07T23:16:50.695Z,16.93
2022-09-07T23:21:00.444Z,16.99
2022-09-07T23:25:03.476Z,17.00
2022-09-07T23:29:06.148Z,17.08
2022-09-07T23:33:08.290Z,17.06
2022-09-07T23:37:10.495Z,16.88
2022-09-07T23:41:17.229Z,16.80
2022-09-07T23:45:19.220Z,16.86
2022-09-07T23:49:21.317Z,16.83
2022-09-07T23:53:23.836Z,16.87
2022-09-07T23:57:25.960Z,16.86
